sensor_id;sensor_type;location;lat;lon;timestamp;temperature;humidity
12971;DHT22;6550;48.650;8.774;2023-03-01T00:01:40;0.40;99.90
12971;DHT22;6550;48.650;8.774;2023-03-01T00:04:06;0.40;99.90
12971;DHT22;6550;48.650;8.774;2023-03-01T00:06:33;0.30;99.90
12971;DHT22;6550;48.650;8.774;2023-03-01T00:09:00;0.30;99.90
12971;DHT22;6550;48.650;8.774;2023-03-01T00:11:31;0.30;99.90
12971;DHT22;6550;48.650;8.774;2023-03-01T00:13:59;0.30;99.90
12971;DHT22;6550;48.650;8.774;2023-03-01T00:16:30;0.20;99.90
12971;DHT22;6550;48.650;8.774;2023-03-01T00:19:00;0.20;99.90
12971;DHT22;6550;48.650;8.774;2023-03-01T00:21:27;0.20;99.90
12971;DHT22;6550;48.650;8.774;2023-03-01T00:23:55;0.20;99.90
12971;DHT22;6550;48.650;8.774;2023-03-01T00:26:25;0.20;99.90
12971;DHT22;6550;48.650;8.774;2023-03-01T00:28:53;0.20;99.90
12971;DHT22;6550;48.650;8.774;2023-03-01T00:31:23;0.80;99.90
12971;DHT22;6550;48.650;8.774;2023-03-01T00:33:55;0.10;99.90
12971;DHT22;6550;48.650;8.774;2023-03-01T00:36:27;0.10;99.90
12971;DHT22;6550;48.650;8.774;2023-03-01T00:38:55;0.10;99.90
12971;DHT22;6550;48.650;8.774;2023-03-01T00:41:24;0.10;99.90
12971;DHT22;6550;48.650;8.774;2023-03-01T00:43:54;0.10;99.90
12971;DHT22;6550;48.650;8.774;2023-03-01T00:46:23;0.10;99.90
12971;DHT22;6550;48.650;8.774;2023-03-01T00:48:53;0.10;99.90
12971;DHT22;6550;48.650;8.774;2023-03-01T00:51:29;0.10;99.90
12971;DHT22;6550;48.650;8.774;2023-03-01T00:53:59;0.70;99.90
12971;DHT22;6550;48.650;8.774;2023-03-01T00:56:29;0.00;99.90
12971;DHT22;6550;48.650;8.774;2023-03-01T00:58:57;0.00;99.90
12971;DHT22;6550;48.650;8.774;2023-03-01T01:01:29;0.00;99.90
12971;DHT22;6550;48.650;8.774;2023-03-01T01:03:59;-0.10;99.90
12971;DHT22;6550;48.650;8.774;2023-03-01T01:06:29;-0.10;99.90
12971;DHT22;6550;48.650;8.774;2023-03-01T01:08:57;-0.10;99.90
12971;DHT22;6550;48.650;8.774;2023-03-01T01:11:26;-0.10;99.90
12971;DHT22;6550;48.650;8.774;2023-03-01T01:13:53;-0.20;99.90
12971;DHT22;6550;48.650;8.774;2023-03-01T01:16:22;-0.20;99.90
12971;DHT22;6550;48.650;8.774;2023-03-01T01:18:50;-0.20;99.90
12971;DHT22;6550;48.650;8.774;2023-03-01T01:21:21;-0.20;99.90
12971;DHT22;6550;48.650;8.774;2023-03-01T01:23:54;-0.20;99.90
12971;DHT22;6550;48.650;8.774;2023-03-01T01:26:24;-0.40;99.90
12971;DHT22;6550;48.650;8.774;2023-03-01T01:28:51;-0.20;99.90
12971;DHT22;6550;48.650;8.774;2023-03-01T01:31:19;-0.50;99.90
12971;DHT22;6550;48.650;8.774;2023-03-01T01:33:46;-0.30;99.90
12971;DHT22;6550;48.650;8.774;2023-03-01T01:36:13;-0.30;99.90
12971;DHT22;6550;48.650;8.774;2023-03-01T01:38:40;-0.30;99.90
12971;DHT22;6550;48.650;8.774;2023-03-01T01:41:12;-0.40;99.90
12971;DHT22;6550;48.650;8.774;2023-03-01T01:43:46;-0.40;99.90
12971;DHT22;6550;48.650;8.774;2023-03-01T01:46:30;-0.10;99.90
12971;DHT22;6550;48.650;8.774;2023-03-01T01:49:05;-0.40;99.90
12971;DHT22;6550;48.650;8.774;2023-03-01T01:51:37;-0.40;99.90
12971;DHT22;6550;48.650;8.774;2023-03-01T01:54:14;-0.40;99.90
12971;DHT22;6550;48.650;8.774;2023-03-01T01:56:48;-0.40;99.90
12971;DHT22;6550;48.650;8.774;2023-03-01T01:59:21;-0.40;99.90
12971;DHT22;6550;48.650;8.774;2023-03-01T02:01:52;-0.40;99.90
12971;DHT22;6550;48.650;8.774;2023-03-01T02:04:19;-0.60;99.90
12971;DHT22;6550;48.650;8.774;2023-03-01T02:06:57;-0.30;99.90
12971;DHT22;6550;48.650;8.774;2023-03-01T02:09:27;-0.50;99.90
12971;DHT22;6550;48.650;8.774;2023-03-01T02:11:54;-0.50;99.90
12971;DHT22;6550;48.650;8.774;2023-03-01T02:14:25;-0.50;99.90
12971;DHT22;6550;48.650;8.774;2023-03-01T02:16:55;-0.50;99.90
12971;DHT22;6550;48.650;8.774;2023-03-01T02:22:23;-0.50;99.90
12971;DHT22;6550;48.650;8.774;2023-03-01T02:30:30;-0.50;99.90
12971;DHT22;6550;48.650;8.774;2023-03-01T02:33:00;-0.50;99.90
12971;DHT22;6550;48.650;8.774;2023-03-01T02:35:31;-0.60;99.90
12971;DHT22;6550;48.650;8.774;2023-03-01T02:40:30;-0.60;99.90
12971;DHT22;6550;48.650;8.774;2023-03-01T02:42:58;-0.60;99.90
12971;DHT22;6550;48.650;8.774;2023-03-01T02:45:26;-0.60;99.90
12971;DHT22;6550;48.650;8.774;2023-03-01T02:47:56;-0.60;99.90
12971;DHT22;6550;48.650;8.774;2023-03-01T02:55:43;-0.60;99.90
12971;DHT22;6550;48.650;8.774;2023-03-01T02:58:10;-0.60;99.90
12971;DHT22;6550;48.650;8.774;2023-03-01T03:00:42;-0.60;99.90
12971;DHT22;6550;48.650;8.774;2023-03-01T03:03:17;-0.50;99.90
12971;DHT22;6550;48.650;8.774;2023-03-01T03:05:45;-0.50;99.90
12971;DHT22;6550;48.650;8.774;2023-03-01T03:08:12;-0.50;99.90
12971;DHT22;6550;48.650;8.774;2023-03-01T03:10:41;-0.40;99.90
12971;DHT22;6550;48.650;8.774;2023-03-01T03:13:13;-0.40;99.90
12971;DHT22;6550;48.650;8.774;2023-03-01T03:15:41;-0.30;99.90
12971;DHT22;6550;48.650;8.774;2023-03-01T03:18:13;-0.50;99.90
12971;DHT22;6550;48.650;8.774;2023-03-01T03:20:41;-0.30;99.90
12971;DHT22;6550;48.650;8.774;2023-03-01T03:23:08;-0.20;99.90
12971;DHT22;6550;48.650;8.774;2023-03-01T03:25:35;-0.30;99.90
12971;DHT22;6550;48.650;8.774;2023-03-01T03:28:05;-0.20;99.90
12971;DHT22;6550;48.650;8.774;2023-03-01T03:30:38;-0.10;99.90
12971;DHT22;6550;48.650;8.774;2023-03-01T03:33:06;-0.10;99.90
12971;DHT22;6550;48.650;8.774;2023-03-01T03:35:38;-0.10;99.90
12971;DHT22;6550;48.650;8.774;2023-03-01T03:38:08;-0.10;99.90
12971;DHT22;6550;48.650;8.774;2023-03-01T03:40:47;0.00;99.90
12971;DHT22;6550;48.650;8.774;2023-03-01T03:43:19;0.00;99.90
12971;DHT22;6550;48.650;8.774;2023-03-01T03:45:50;0.10;99.90
12971;DHT22;6550;48.650;8.774;2023-03-01T03:48:18;0.10;99.90
12971;DHT22;6550;48.650;8.774;2023-03-01T03:50:50;0.20;99.90
12971;DHT22;6550;48.650;8.774;2023-03-01T03:53:17;0.20;99.90
12971;DHT22;6550;48.650;8.774;2023-03-01T03:55:44;0.20;99.90
12971;DHT22;6550;48.650;8.774;2023-03-01T03:58:13;0.00;99.90
12971;DHT22;6550;48.650;8.774;2023-03-01T04:00:42;0.30;99.90
12971;DHT22;6550;48.650;8.774;2023-03-01T04:03:11;0.30;99.90
12971;DHT22;6550;48.650;8.774;2023-03-01T04:05:40;0.30;99.90
12971;DHT22;6550;48.650;8.774;2023-03-01T04:08:11;0.40;99.90
12971;DHT22;6550;48.650;8.774;2023-03-01T04:10:44;0.40;99.90
12971;DHT22;6550;48.650;8.774;2023-03-01T04:13:14;0.50;99.90
12971;DHT22;6550;48.650;8.774;2023-03-01T04:15:41;0.50;99.90
12971;DHT22;6550;48.650;8.774;2023-03-01T04:18:12;0.50;99.90
12971;DHT22;6550;48.650;8.774;2023-03-01T04:20:42;0.50;99.90
12971;DHT22;6550;48.650;8.774;2023-03-01T04:23:13;0.60;99.90
12971;DHT22;6550;48.650;8.774;2023-03-01T04:30:54;0.60;99.90
12971;DHT22;6550;48.650;8.774;2023-03-01T04:33:22;0.60;99.90
12971;DHT22;6550;48.650;8.774;2023-03-01T04:35:51;0.60;99.90
12971;DHT22;6550;48.650;8.774;2023-03-01T04:38:19;0.60;99.90
12971;DHT22;6550;48.650;8.774;2023-03-01T04:40:50;0.20;99.90
12971;DHT22;6550;48.650;8.774;2023-03-01T04:43:16;0.70;99.90
12971;DHT22;6550;48.650;8.774;2023-03-01T04:45:44;0.70;99.90
12971;DHT22;6550;48.650;8.774;2023-03-01T04:48:13;0.70;99.90
12971;DHT22;6550;48.650;8.774;2023-03-01T04:50:39;0.80;99.90
12971;DHT22;6550;48.650;8.774;2023-03-01T04:53:06;0.80;99.90
12971;DHT22;6550;48.650;8.774;2023-03-01T04:55:38;0.80;99.90
12971;DHT22;6550;48.650;8.774;2023-03-01T04:58:04;0.80;99.90
12971;DHT22;6550;48.650;8.774;2023-03-01T05:00:31;0.80;99.90
12971;DHT22;6550;48.650;8.774;2023-03-01T05:03:00;0.80;99.90
12971;DHT22;6550;48.650;8.774;2023-03-01T05:05:37;0.90;99.90
12971;DHT22;6550;48.650;8.774;2023-03-01T05:08:06;0.80;99.90
12971;DHT22;6550;48.650;8.774;2023-03-01T05:10:35;0.80;99.90
12971;DHT22;6550;48.650;8.774;2023-03-01T05:13:03;0.90;99.90
12971;DHT22;6550;48.650;8.774;2023-03-01T05:15:30;0.90;99.90
12971;DHT22;6550;48.650;8.774;2023-03-01T05:17:59;0.90;99.90
12971;DHT22;6550;48.650;8.774;2023-03-01T05:20:27;0.90;99.90
12971;DHT22;6550;48.650;8.774;2023-03-01T05:22:57;0.90;99.90
12971;DHT22;6550;48.650;8.774;2023-03-01T05:25:26;0.90;99.90
12971;DHT22;6550;48.650;8.774;2023-03-01T05:27:53;0.90;99.90
12971;DHT22;6550;48.650;8.774;2023-03-01T05:30:20;1.00;99.90
12971;DHT22;6550;48.650;8.774;2023-03-01T05:32:49;1.00;99.90
12971;DHT22;6550;48.650;8.774;2023-03-01T05:35:22;1.00;99.90
12971;DHT22;6550;48.650;8.774;2023-03-01T05:37:49;1.60;99.90
12971;DHT22;6550;48.650;8.774;2023-03-01T05:40:22;1.00;99.90
12971;DHT22;6550;48.650;8.774;2023-03-01T05:42:56;1.00;99.90
12971;DHT22;6550;48.650;8.774;2023-03-01T05:45:25;1.00;99.90
12971;DHT22;6550;48.650;8.774;2023-03-01T05:47:54;0.90;99.90
12971;DHT22;6550;48.650;8.774;2023-03-01T05:50:27;1.10;99.90
12971;DHT22;6550;48.650;8.774;2023-03-01T05:55:29;1.10;99.90
12971;DHT22;6550;48.650;8.774;2023-03-01T05:57:59;1.10;99.90
12971;DHT22;6550;48.650;8.774;2023-03-01T06:00:29;1.10;99.90
12971;DHT22;6550;48.650;8.774;2023-03-01T06:03:00;1.10;99.90
12971;DHT22;6550;48.650;8.774;2023-03-01T06:05:29;1.40;99.90
12971;DHT22;6550;48.650;8.774;2023-03-01T06:07:59;1.10;99.90
12971;DHT22;6550;48.650;8.774;2023-03-01T06:10:29;1.10;99.90
12971;DHT22;6550;48.650;8.774;2023-03-01T06:12:58;1.10;99.90
12971;DHT22;6550;48.650;8.774;2023-03-01T06:15:25;1.20;99.90
12971;DHT22;6550;48.650;8.774;2023-03-01T06:17:54;1.20;99.90
12971;DHT22;6550;48.650;8.774;2023-03-01T06:20:26;1.20;99.90
12971;DHT22;6550;48.650;8.774;2023-03-01T06:22:53;1.20;99.90
12971;DHT22;6550;48.650;8.774;2023-03-01T06:25:22;1.20;99.90
12971;DHT22;6550;48.650;8.774;2023-03-01T06:27:51;1.30;99.90
12971;DHT22;6550;48.650;8.774;2023-03-01T06:30:25;1.30;99.90
12971;DHT22;6550;48.650;8.774;2023-03-01T06:32:54;1.30;99.90
12971;DHT22;6550;48.650;8.774;2023-03-01T06:35:27;1.30;99.90
12971;DHT22;6550;48.650;8.774;2023-03-01T06:37:58;1.40;99.90
12971;DHT22;6550;48.650;8.774;2023-03-01T06:40:27;1.40;99.90
12971;DHT22;6550;48.650;8.774;2023-03-01T06:42:54;1.40;99.90
12971;DHT22;6550;48.650;8.774;2023-03-01T06:45:24;1.40;99.90
12971;DHT22;6550;48.650;8.774;2023-03-01T06:47:50;1.50;99.90
12971;DHT22;6550;48.650;8.774;2023-03-01T06:50:20;1.50;99.90
12971;DHT22;6550;48.650;8.774;2023-03-01T06:52:47;1.60;99.90
12971;DHT22;6550;48.650;8.774;2023-03-01T06:55:13;1.60;99.90
12971;DHT22;6550;48.650;8.774;2023-03-01T06:57:42;1.60;99.90
12971;DHT22;6550;48.650;8.774;2023-03-01T07:00:11;1.70;99.90
12971;DHT22;6550;48.650;8.774;2023-03-01T07:02:40;1.70;99.90
12971;DHT22;6550;48.650;8.774;2023-03-01T07:05:07;1.80;99.90
12971;DHT22;6550;48.650;8.774;2023-03-01T07:07:34;1.80;99.90
12971;DHT22;6550;48.650;8.774;2023-03-01T07:10:01;1.90;99.90
12971;DHT22;6550;48.650;8.774;2023-03-01T07:12:28;1.80;99.90
12971;DHT22;6550;48.650;8.774;2023-03-01T07:14:54;2.10;99.90
12971;DHT22;6550;48.650;8.774;2023-03-01T07:17:21;2.10;99.90
12971;DHT22;6550;48.650;8.774;2023-03-01T07:19:50;2.20;99.90
12971;DHT22;6550;48.650;8.774;2023-03-01T07:22:17;2.20;99.90
12971;DHT22;6550;48.650;8.774;2023-03-01T07:24:43;2.20;99.90
12971;DHT22;6550;48.650;8.774;2023-03-01T07:27:11;2.40;99.90
12971;DHT22;6550;48.650;8.774;2023-03-01T07:29:38;2.50;99.90
12971;DHT22;6550;48.650;8.774;2023-03-01T07:32:07;2.70;99.90
12971;DHT22;6550;48.650;8.774;2023-03-01T07:34:34;2.60;99.90
12971;DHT22;6550;48.650;8.774;2023-03-01T07:37:05;2.70;99.90
12971;DHT22;6550;48.650;8.774;2023-03-01T07:39:32;2.80;99.90
12971;DHT22;6550;48.650;8.774;2023-03-01T07:44:26;2.90;99.90
12971;DHT22;6550;48.650;8.774;2023-03-01T07:46:56;2.90;99.90
12971;DHT22;6550;48.650;8.774;2023-03-01T07:49:24;3.00;99.90
12971;DHT22;6550;48.650;8.774;2023-03-01T07:51:52;3.10;99.90
12971;DHT22;6550;48.650;8.774;2023-03-01T07:54:21;3.30;99.90
12971;DHT22;6550;48.650;8.774;2023-03-01T07:56:51;4.10;99.90
12971;DHT22;6550;48.650;8.774;2023-03-01T07:59:17;3.50;99.90
12971;DHT22;6550;48.650;8.774;2023-03-01T08:01:49;3.70;99.90
12971;DHT22;6550;48.650;8.774;2023-03-01T08:04:15;3.80;99.90
12971;DHT22;6550;48.650;8.774;2023-03-01T08:06:44;4.00;99.90
12971;DHT22;6550;48.650;8.774;2023-03-01T08:11:40;4.50;99.90
12971;DHT22;6550;48.650;8.774;2023-03-01T08:14:09;4.90;99.90
12971;DHT22;6550;48.650;8.774;2023-03-01T08:16:37;5.00;99.90
12971;DHT22;6550;48.650;8.774;2023-03-01T08:19:09;5.00;99.90
12971;DHT22;6550;48.650;8.774;2023-03-01T08:21:36;5.40;99.90
12971;DHT22;6550;48.650;8.774;2023-03-01T08:24:05;6.00;99.90
12971;DHT22;6550;48.650;8.774;2023-03-01T08:26:36;6.00;99.90
12971;DHT22;6550;48.650;8.774;2023-03-01T08:29:03;5.90;99.90
12971;DHT22;6550;48.650;8.774;2023-03-01T08:31:34;6.10;99.90
12971;DHT22;6550;48.650;8.774;2023-03-01T08:34:05;6.30;98.30
12971;DHT22;6550;48.650;8.774;2023-03-01T08:36:37;6.70;99.90
12971;DHT22;6550;48.650;8.774;2023-03-01T08:39:04;6.70;97.70
12971;DHT22;6550;48.650;8.774;2023-03-01T08:41:32;6.70;98.00
12971;DHT22;6550;48.650;8.774;2023-03-01T08:44:02;6.80;97.60
12971;DHT22;6550;48.650;8.774;2023-03-01T08:46:31;6.90;97.20
12971;DHT22;6550;48.650;8.774;2023-03-01T08:49:04;7.20;97.60
12971;DHT22;6550;48.650;8.774;2023-03-01T08:51:34;7.20;96.40
12971;DHT22;6550;48.650;8.774;2023-03-01T08:54:10;7.40;95.90
12971;DHT22;6550;48.650;8.774;2023-03-01T08:56:40;7.60;96.50
12971;DHT22;6550;48.650;8.774;2023-03-01T08:59:07;7.60;96.30
12971;DHT22;6550;48.650;8.774;2023-03-01T09:01:34;7.90;96.00
12971;DHT22;6550;48.650;8.774;2023-03-01T09:04:03;7.80;95.20
12971;DHT22;6550;48.650;8.774;2023-03-01T09:06:33;8.00;95.60
12971;DHT22;6550;48.650;8.774;2023-03-01T09:09:03;8.20;94.50
12971;DHT22;6550;48.650;8.774;2023-03-01T09:11:33;8.10;94.80
12971;DHT22;6550;48.650;8.774;2023-03-01T09:14:05;8.20;94.10
12971;DHT22;6550;48.650;8.774;2023-03-01T09:16:32;8.20;93.80
12971;DHT22;6550;48.650;8.774;2023-03-01T09:19:03;8.20;93.90
12971;DHT22;6550;48.650;8.774;2023-03-01T09:21:30;8.30;92.70
12971;DHT22;6550;48.650;8.774;2023-03-01T09:24:13;8.50;93.00
12971;DHT22;6550;48.650;8.774;2023-03-01T09:26:40;8.60;92.20
12971;DHT22;6550;48.650;8.774;2023-03-01T09:29:09;8.80;92.50
12971;DHT22;6550;48.650;8.774;2023-03-01T09:31:36;8.80;91.70
12971;DHT22;6550;48.650;8.774;2023-03-01T09:41:46;9.10;91.10
12971;DHT22;6550;48.650;8.774;2023-03-01T09:47:01;9.30;90.80
12971;DHT22;6550;48.650;8.774;2023-03-01T09:49:33;9.50;90.70
12971;DHT22;6550;48.650;8.774;2023-03-01T09:52:11;9.80;90.40
12971;DHT22;6550;48.650;8.774;2023-03-01T09:54:40;9.70;91.00
12971;DHT22;6550;48.650;8.774;2023-03-01T09:57:13;9.80;87.90
12971;DHT22;6550;48.650;8.774;2023-03-01T09:59:55;10.00;89.20
12971;DHT22;6550;48.650;8.774;2023-03-01T10:02:46;10.10;86.30
12971;DHT22;6550;48.650;8.774;2023-03-01T10:05:31;10.30;86.10
12971;DHT22;6550;48.650;8.774;2023-03-01T10:10:47;10.60;83.50
12971;DHT22;6550;48.650;8.774;2023-03-01T10:13:34;10.80;84.00
12971;DHT22;6550;48.650;8.774;2023-03-01T10:16:25;10.80;84.50
12971;DHT22;6550;48.650;8.774;2023-03-01T10:19:00;10.80;84.70
12971;DHT22;6550;48.650;8.774;2023-03-01T10:21:28;10.70;87.20
12971;DHT22;6550;48.650;8.774;2023-03-01T10:24:14;11.30;85.90
12971;DHT22;6550;48.650;8.774;2023-03-01T10:27:09;10.80;87.00
12971;DHT22;6550;48.650;8.774;2023-03-01T10:32:24;11.00;83.80
12971;DHT22;6550;48.650;8.774;2023-03-01T10:34:51;11.10;83.70
12971;DHT22;6550;48.650;8.774;2023-03-01T10:37:20;11.20;83.80
12971;DHT22;6550;48.650;8.774;2023-03-01T10:40:09;11.20;82.30
12971;DHT22;6550;48.650;8.774;2023-03-01T10:42:40;11.20;83.70
12971;DHT22;6550;48.650;8.774;2023-03-01T10:48:14;11.30;81.70
12971;DHT22;6550;48.650;8.774;2023-03-01T10:50:44;11.50;81.30
12971;DHT22;6550;48.650;8.774;2023-03-01T10:53:49;11.90;81.60
12971;DHT22;6550;48.650;8.774;2023-03-01T10:56:20;11.50;83.00
12971;DHT22;6550;48.650;8.774;2023-03-01T11:06:32;13.50;81.50
12971;DHT22;6550;48.650;8.774;2023-03-01T11:09:21;12.00;81.50
12971;DHT22;6550;48.650;8.774;2023-03-01T11:11:58;12.10;81.80
12971;DHT22;6550;48.650;8.774;2023-03-01T11:14:38;12.10;81.20
12971;DHT22;6550;48.650;8.774;2023-03-01T11:17:17;12.40;81.70
12971;DHT22;6550;48.650;8.774;2023-03-01T11:20:06;12.00;81.10
12971;DHT22;6550;48.650;8.774;2023-03-01T11:22:51;12.00;80.10
12971;DHT22;6550;48.650;8.774;2023-03-01T11:25:24;12.40;80.50
12971;DHT22;6550;48.650;8.774;2023-03-01T11:27:54;12.00;81.10
12971;DHT22;6550;48.650;8.774;2023-03-01T11:30:29;11.90;80.20
12971;DHT22;6550;48.650;8.774;2023-03-01T11:35:44;11.80;78.80
12971;DHT22;6550;48.650;8.774;2023-03-01T11:41:10;12.10;78.00
12971;DHT22;6550;48.650;8.774;2023-03-01T11:52:08;12.20;77.10
12971;DHT22;6550;48.650;8.774;2023-03-01T11:55:44;12.40;77.30
12971;DHT22;6550;48.650;8.774;2023-03-01T12:00:25;12.50;75.80
12971;DHT22;6550;48.650;8.774;2023-03-01T12:10:42;14.00;75.20
12971;DHT22;6550;48.650;8.774;2023-03-01T12:18:50;12.00;69.60
12971;DHT22;6550;48.650;8.774;2023-03-01T12:21:30;12.00;70.90
12971;DHT22;6550;48.650;8.774;2023-03-01T12:32:40;13.60;70.30
12971;DHT22;6550;48.650;8.774;2023-03-01T12:38:37;13.40;70.70
12971;DHT22;6550;48.650;8.774;2023-03-01T12:51:24;12.90;71.60
12971;DHT22;6550;48.650;8.774;2023-03-01T12:53:55;13.20;77.20
12971;DHT22;6550;48.650;8.774;2023-03-01T12:56:29;15.20;78.60
12971;DHT22;6550;48.650;8.774;2023-03-01T12:59:11;15.20;79.20
12971;DHT22;6550;48.650;8.774;2023-03-01T13:01:49;15.30;78.90
12971;DHT22;6550;48.650;8.774;2023-03-01T13:31:05;14.20;75.80
12971;DHT22;6550;48.650;8.774;2023-03-01T13:36:01;13.70;75.80
12971;DHT22;6550;48.650;8.774;2023-03-01T13:41:15;13.00;77.20
12971;DHT22;6550;48.650;8.774;2023-03-01T13:43:44;12.80;78.80
12971;DHT22;6550;48.650;8.774;2023-03-01T13:46:18;12.60;78.30
12971;DHT22;6550;48.650;8.774;2023-03-01T13:48:52;12.40;78.50
12971;DHT22;6550;48.650;8.774;2023-03-01T13:51:29;12.20;78.20
12971;DHT22;6550;48.650;8.774;2023-03-01T13:53:57;12.10;79.10
12971;DHT22;6550;48.650;8.774;2023-03-01T13:56:27;11.90;79.20
12971;DHT22;6550;48.650;8.774;2023-03-01T13:59:05;11.80;79.30
12971;DHT22;6550;48.650;8.774;2023-03-01T14:01:35;11.70;80.40
12971;DHT22;6550;48.650;8.774;2023-03-01T14:04:23;11.60;80.70
12971;DHT22;6550;48.650;8.774;2023-03-01T14:06:50;11.90;80.40
12971;DHT22;6550;48.650;8.774;2023-03-01T14:09:22;11.30;79.00
12971;DHT22;6550;48.650;8.774;2023-03-01T14:18:04;11.00;81.40
12971;DHT22;6550;48.650;8.774;2023-03-01T14:20:44;10.80;80.30
12971;DHT22;6550;48.650;8.774;2023-03-01T14:23:22;10.80;82.00
12971;DHT22;6550;48.650;8.774;2023-03-01T14:25:54;10.70;80.40
12971;DHT22;6550;48.650;8.774;2023-03-01T14:28:24;10.60;82.00
12971;DHT22;6550;48.650;8.774;2023-03-01T14:30:57;11.30;83.00
12971;DHT22;6550;48.650;8.774;2023-03-01T14:33:30;11.10;84.10
12971;DHT22;6550;48.650;8.774;2023-03-01T14:36:11;10.50;82.60
12971;DHT22;6550;48.650;8.774;2023-03-01T14:38:46;10.40;83.50
12971;DHT22;6550;48.650;8.774;2023-03-01T14:41:17;10.30;82.80
12971;DHT22;6550;48.650;8.774;2023-03-01T14:43:50;10.30;83.10
12971;DHT22;6550;48.650;8.774;2023-03-01T14:46:26;10.40;83.80
12971;DHT22;6550;48.650;8.774;2023-03-01T14:49:05;10.40;84.60
12971;DHT22;6550;48.650;8.774;2023-03-01T14:51:40;10.30;83.60
12971;DHT22;6550;48.650;8.774;2023-03-01T14:54:24;10.20;84.10
12971;DHT22;6550;48.650;8.774;2023-03-01T14:56:53;10.10;84.00
12971;DHT22;6550;48.650;8.774;2023-03-01T14:59:22;10.20;83.80
12971;DHT22;6550;48.650;8.774;2023-03-01T15:01:54;10.00;83.80
12971;DHT22;6550;48.650;8.774;2023-03-01T15:04:24;10.00;84.40
12971;DHT22;6550;48.650;8.774;2023-03-01T15:06:54;10.10;85.40
12971;DHT22;6550;48.650;8.774;2023-03-01T15:09:24;9.80;84.10
12971;DHT22;6550;48.650;8.774;2023-03-01T15:11:54;9.60;83.90
12971;DHT22;6550;48.650;8.774;2023-03-01T15:14:49;9.50;85.40
12971;DHT22;6550;48.650;8.774;2023-03-01T15:17:34;9.60;84.80
12971;DHT22;6550;48.650;8.774;2023-03-01T15:20:15;9.50;84.60
12971;DHT22;6550;48.650;8.774;2023-03-01T15:25:19;9.60;84.90
12971;DHT22;6550;48.650;8.774;2023-03-01T15:27:48;9.50;85.00
12971;DHT22;6550;48.650;8.774;2023-03-01T15:30:45;9.40;85.10
12971;DHT22;6550;48.650;8.774;2023-03-01T15:33:26;9.40;84.70
12971;DHT22;6550;48.650;8.774;2023-03-01T15:35:57;9.30;84.40
12971;DHT22;6550;48.650;8.774;2023-03-01T15:38:49;9.30;85.00
12971;DHT22;6550;48.650;8.774;2023-03-01T15:41:52;9.20;85.20
12971;DHT22;6550;48.650;8.774;2023-03-01T15:44:36;9.20;85.70
12971;DHT22;6550;48.650;8.774;2023-03-01T15:47:25;9.20;86.10
12971;DHT22;6550;48.650;8.774;2023-03-01T15:49:54;9.10;85.30
12971;DHT22;6550;48.650;8.774;2023-03-01T15:52:35;9.10;86.20
12971;DHT22;6550;48.650;8.774;2023-03-01T15:55:17;9.00;87.10
12971;DHT22;6550;48.650;8.774;2023-03-01T16:00:12;9.00;86.90
12971;DHT22;6550;48.650;8.774;2023-03-01T16:02:41;8.90;86.70
12971;DHT22;6550;48.650;8.774;2023-03-01T16:05:26;9.20;88.30
12971;DHT22;6550;48.650;8.774;2023-03-01T16:07:54;8.80;87.10
12971;DHT22;6550;48.650;8.774;2023-03-01T16:10:21;8.80;87.60
12971;DHT22;6550;48.650;8.774;2023-03-01T16:12:49;8.80;87.50
12971;DHT22;6550;48.650;8.774;2023-03-01T16:15:22;8.70;87.10
12971;DHT22;6550;48.650;8.774;2023-03-01T16:17:50;8.60;87.70
12971;DHT22;6550;48.650;8.774;2023-03-01T16:20:17;8.70;88.40
12971;DHT22;6550;48.650;8.774;2023-03-01T16:23:03;8.40;88.20
12971;DHT22;6550;48.650;8.774;2023-03-01T16:25:33;8.70;88.50
12971;DHT22;6550;48.650;8.774;2023-03-01T16:28:00;8.30;88.20
12971;DHT22;6550;48.650;8.774;2023-03-01T16:30:31;8.30;88.00
12971;DHT22;6550;48.650;8.774;2023-03-01T16:33:00;8.30;88.80
12971;DHT22;6550;48.650;8.774;2023-03-01T16:35:28;8.20;89.70
12971;DHT22;6550;48.650;8.774;2023-03-01T16:37:55;8.10;89.10
12971;DHT22;6550;48.650;8.774;2023-03-01T16:40:27;8.10;89.00
12971;DHT22;6550;48.650;8.774;2023-03-01T16:42:55;8.00;89.90
12971;DHT22;6550;48.650;8.774;2023-03-01T16:45:33;7.90;88.90
12971;DHT22;6550;48.650;8.774;2023-03-01T16:48:03;8.00;90.10
12971;DHT22;6550;48.650;8.774;2023-03-01T16:50:30;7.80;90.00
12971;DHT22;6550;48.650;8.774;2023-03-01T16:52:58;7.80;89.80
12971;DHT22;6550;48.650;8.774;2023-03-01T16:55:27;7.60;90.00
12971;DHT22;6550;48.650;8.774;2023-03-01T16:57:54;7.60;90.20
12971;DHT22;6550;48.650;8.774;2023-03-01T17:00:21;7.60;90.60
12971;DHT22;6550;48.650;8.774;2023-03-01T17:02:49;7.50;90.20
12971;DHT22;6550;48.650;8.774;2023-03-01T17:05:15;7.40;90.80
12971;DHT22;6550;48.650;8.774;2023-03-01T17:07:44;7.30;91.10
12971;DHT22;6550;48.650;8.774;2023-03-01T17:10:11;7.30;91.10
12971;DHT22;6550;48.650;8.774;2023-03-01T17:12:38;7.20;91.50
12971;DHT22;6550;48.650;8.774;2023-03-01T17:15:07;7.20;91.40
12971;DHT22;6550;48.650;8.774;2023-03-01T17:17:34;7.20;92.00
12971;DHT22;6550;48.650;8.774;2023-03-01T17:20:01;7.10;92.20
12971;DHT22;6550;48.650;8.774;2023-03-01T17:22:30;6.90;92.40
12971;DHT22;6550;48.650;8.774;2023-03-01T17:24:57;6.80;92.40
12971;DHT22;6550;48.650;8.774;2023-03-01T17:27:24;6.70;93.00
12971;DHT22;6550;48.650;8.774;2023-03-01T17:29:51;7.30;96.70
12971;DHT22;6550;48.650;8.774;2023-03-01T17:32:18;7.20;96.40
12971;DHT22;6550;48.650;8.774;2023-03-01T17:34:45;7.00;93.90
12971;DHT22;6550;48.650;8.774;2023-03-01T17:37:12;6.70;95.90
12971;DHT22;6550;48.650;8.774;2023-03-01T17:39:41;6.70;95.40
12971;DHT22;6550;48.650;8.774;2023-03-01T17:42:08;6.40;97.60
12971;DHT22;6550;48.650;8.774;2023-03-01T17:44:34;6.90;97.70
12971;DHT22;6550;48.650;8.774;2023-03-01T17:47:02;6.30;98.50
12971;DHT22;6550;48.650;8.774;2023-03-01T17:49:31;6.10;98.50
12971;DHT22;6550;48.650;8.774;2023-03-01T17:52:01;6.10;99.00
12971;DHT22;6550;48.650;8.774;2023-03-01T17:54:31;5.90;98.70
12971;DHT22;6550;48.650;8.774;2023-03-01T17:56:59;5.80;99.00
12971;DHT22;6550;48.650;8.774;2023-03-01T18:01:57;5.70;99.90
12971;DHT22;6550;48.650;8.774;2023-03-01T18:04:24;5.40;99.90
12971;DHT22;6550;48.650;8.774;2023-03-01T18:06:55;5.60;99.90
12971;DHT22;6550;48.650;8.774;2023-03-01T18:09:22;5.30;99.90
12971;DHT22;6550;48.650;8.774;2023-03-01T18:11:49;5.20;99.90
12971;DHT22;6550;48.650;8.774;2023-03-01T18:14:16;5.10;99.90
12971;DHT22;6550;48.650;8.774;2023-03-01T18:16:42;5.10;99.90
12971;DHT22;6550;48.650;8.774;2023-03-01T18:19:12;5.20;99.90
12971;DHT22;6550;48.650;8.774;2023-03-01T18:24:06;5.00;99.90
12971;DHT22;6550;48.650;8.774;2023-03-01T18:26:33;5.00;99.90
12971;DHT22;6550;48.650;8.774;2023-03-01T18:29:00;4.90;99.90
12971;DHT22;6550;48.650;8.774;2023-03-01T18:31:30;4.80;99.90
12971;DHT22;6550;48.650;8.774;2023-03-01T18:33:59;4.80;99.90
12971;DHT22;6550;48.650;8.774;2023-03-01T18:36:29;4.80;99.90
12971;DHT22;6550;48.650;8.774;2023-03-01T18:38:57;5.00;99.90
12971;DHT22;6550;48.650;8.774;2023-03-01T18:41:27;4.70;99.90
12971;DHT22;6550;48.650;8.774;2023-03-01T18:43:58;4.60;99.90
12971;DHT22;6550;48.650;8.774;2023-03-01T18:46:25;4.60;99.90
12971;DHT22;6550;48.650;8.774;2023-03-01T18:48:53;4.50;99.90
12971;DHT22;6550;48.650;8.774;2023-03-01T18:51:22;4.50;99.90
12971;DHT22;6550;48.650;8.774;2023-03-01T18:53:50;4.50;99.90
12971;DHT22;6550;48.650;8.774;2023-03-01T18:56:17;4.50;99.90
12971;DHT22;6550;48.650;8.774;2023-03-01T18:58:44;4.40;99.90